createdAt,value
2018-07-14T00:01:16.067Z,20.80
2018-07-14T00:03:48.401Z,20.70
2018-07-14T00:06:22.813Z,20.60
2018-07-14T00:08:55.384Z,20.50
2018-07-14T00:11:27.720Z,20.50
2018-07-14T00:14:00.178Z,20.50
2018-07-14T00:16:32.483Z,20.40
2018-07-14T00:19:04.790Z,20.40
2018-07-14T00:21:37.008Z,20.30
2018-07-14T00:24:14.034Z,20.30
2018-07-14T00:26:46.397Z,20.20
2018-07-14T00:29:18.739Z,20.20
2018-07-14T00:31:50.984Z,20.20
2018-07-14T00:34:23.237Z,20.20
2018-07-14T00:36:55.629Z,20.10
2018-07-14T00:39:27.866Z,20.00
2018-07-14T00:42:00.442Z,20.00
2018-07-14T00:44:32.732Z,20.00
2018-07-14T00:47:05.899Z,19.90
2018-07-14T00:49:38.292Z,19.90
2018-07-14T00:52:10.582Z,19.90
2018-07-14T00:54:43.671Z,19.90
2018-07-14T00:57:15.916Z,19.80
2018-07-14T00:59:48.271Z,19.80
2018-07-14T01:02:20.523Z,19.80
2018-07-14T01:04:53.396Z,19.80
2018-07-14T01:07:25.757Z,19.80
2018-07-14T01:09:58.042Z,19.80
2018-07-14T01:12:31.193Z,19.80
2018-07-14T01:15:03.729Z,19.80
2018-07-14T01:17:36.050Z,19.80
2018-07-14T01:22:39.352Z,19.80
2018-07-14T01:25:12.421Z,19.70
2018-07-14T01:27:46.984Z,19.70
2018-07-14T01:30:19.287Z,19.60
2018-07-14T01:32:51.872Z,19.60
2018-07-14T01:35:24.138Z,19.60
2018-07-14T01:41:16.694Z,19.50
2018-07-14T01:43:51.861Z,19.40
2018-07-14T01:46:24.000Z,19.30
2018-07-14T01:51:26.909Z,19.30
2018-07-14T01:53:59.320Z,19.20
2018-07-14T01:56:31.360Z,19.20
2018-07-14T02:02:24.368Z,19.10
2018-07-14T02:05:01.010Z,19.10
2018-07-14T02:07:36.178Z,19.10
2018-07-14T02:10:11.572Z,19.00
2018-07-14T02:12:44.817Z,18.90
2018-07-14T02:15:17.079Z,18.80
2018-07-14T02:17:49.294Z,18.80
2018-07-14T02:20:23.473Z,18.70
2018-07-14T02:22:56.649Z,18.70
2018-07-14T02:25:33.529Z,18.70
2018-07-14T02:31:36.424Z,18.60
2018-07-14T02:34:08.549Z,18.60
2018-07-14T02:36:40.699Z,18.60
2018-07-14T02:39:12.978Z,18.60
2018-07-14T02:41:45.161Z,18.50
2018-07-14T02:44:17.328Z,18.50
2018-07-14T02:46:49.642Z,18.50
2018-07-14T02:49:21.707Z,18.60
2018-07-14T02:51:54.052Z,18.50
2018-07-14T02:54:27.689Z,18.50
2018-07-14T02:57:00.878Z,18.50
2018-07-14T02:59:33.314Z,18.50
2018-07-14T03:02:05.473Z,18.50
2018-07-14T03:07:56.116Z,18.40
2018-07-14T03:10:28.185Z,18.40
2018-07-14T03:13:00.341Z,18.40
2018-07-14T03:15:32.448Z,18.40
2018-07-14T03:18:04.601Z,18.40
2018-07-14T03:20:36.656Z,18.40
2018-07-14T03:23:08.690Z,18.40
2018-07-14T03:25:40.791Z,18.40
2018-07-14T03:28:15.493Z,18.30
2018-07-14T03:30:50.306Z,18.30
2018-07-14T03:36:00.917Z,18.20
2018-07-14T03:38:33.248Z,18.10
2018-07-14T03:41:05.395Z,18.20
2018-07-14T03:43:37.460Z,18.10
2018-07-14T03:46:09.757Z,18.10
2018-07-14T03:48:41.812Z,18.10
2018-07-14T03:51:13.996Z,18.20
2018-07-14T03:53:46.012Z,18.20
2018-07-14T03:56:18.036Z,18.10
2018-07-14T03:58:50.034Z,18.10
2018-07-14T04:01:22.570Z,18.10
2018-07-14T04:03:54.574Z,18.10
2018-07-14T04:06:26.636Z,18.10
2018-07-14T04:08:58.720Z,18.10
2018-07-14T04:11:31.241Z,18.10
2018-07-14T04:14:03.223Z,18.10
2018-07-14T04:16:35.316Z,18.10
2018-07-14T04:19:07.881Z,18.10
2018-07-14T04:21:39.996Z,18.10
2018-07-14T04:24:12.558Z,18.10
2018-07-14T04:26:47.094Z,18.10
2018-07-14T04:29:23.708Z,18.20
2018-07-14T04:31:57.207Z,18.10
2018-07-14T04:34:29.388Z,18.10
2018-07-14T04:37:01.484Z,18.10
2018-07-14T04:39:33.582Z,18.00
2018-07-14T04:42:05.651Z,18.00
2018-07-14T04:44:37.740Z,18.00
2018-07-14T04:47:10.877Z,17.90
2018-07-14T04:49:43.006Z,17.80
2018-07-14T04:52:15.331Z,17.80
2018-07-14T04:54:47.535Z,17.80
2018-07-14T04:57:19.727Z,17.90
2018-07-14T04:59:51.993Z,17.90
2018-07-14T05:02:24.098Z,17.90
2018-07-14T05:04:56.164Z,18.00
2018-07-14T05:07:28.303Z,17.90
2018-07-14T05:10:00.447Z,17.90
2018-07-14T05:12:32.701Z,17.90
2018-07-14T05:15:04.906Z,17.90
2018-07-14T05:17:36.985Z,17.90
2018-07-14T05:20:09.191Z,18.00
2018-07-14T05:22:41.888Z,18.00
2018-07-14T05:25:14.354Z,18.00
2018-07-14T05:27:48.163Z,17.90
2018-07-14T05:30:20.601Z,17.80
2018-07-14T05:35:24.285Z,17.80
2018-07-14T05:37:56.945Z,17.80
2018-07-14T05:40:29.442Z,17.70
2018-07-14T05:43:02.301Z,17.60
2018-07-14T05:45:34.895Z,17.60
2018-07-14T05:48:07.547Z,17.60
2018-07-14T05:50:39.987Z,17.60
2018-07-14T05:53:12.940Z,17.60
2018-07-14T05:55:46.426Z,17.70
2018-07-14T05:58:20.698Z,17.60
2018-07-14T06:00:54.231Z,17.60
2018-07-14T06:03:27.688Z,17.60
2018-07-14T06:06:08.762Z,17.50
2018-07-14T06:09:02.641Z,17.50
2018-07-14T06:11:35.931Z,17.50
2018-07-14T06:14:18.021Z,17.50
2018-07-14T06:16:51.708Z,17.40
2018-07-14T06:19:24.569Z,17.50
2018-07-14T06:21:57.286Z,17.50
2018-07-14T06:24:30.737Z,17.50
2018-07-14T06:27:06.787Z,17.50
2018-07-14T06:33:00.306Z,17.50
2018-07-14T06:35:33.024Z,17.40
2018-07-14T06:38:05.661Z,17.30
2018-07-14T06:40:38.523Z,17.20
2018-07-14T06:43:11.469Z,17.20
2018-07-14T06:45:44.389Z,17.30
2018-07-14T06:48:16.963Z,17.20
2018-07-14T06:50:49.622Z,17.20
2018-07-14T06:53:23.426Z,17.20
2018-07-14T06:59:16.534Z,17.20
2018-07-14T07:04:19.809Z,17.10
2018-07-14T07:06:52.040Z,17.20
2018-07-14T07:09:24.445Z,17.20
2018-07-14T07:11:56.812Z,17.20
2018-07-14T07:14:29.175Z,17.20
2018-07-14T07:17:01.630Z,17.20
2018-07-14T07:19:34.095Z,17.20
2018-07-14T07:22:06.390Z,17.20
2018-07-14T07:24:38.627Z,17.20
2018-07-14T07:27:11.062Z,17.10
2018-07-14T07:29:43.750Z,17.10
2018-07-14T07:32:15.929Z,17.20
2018-07-14T07:34:48.275Z,17.10
2018-07-14T07:37:20.503Z,17.20
2018-07-14T07:39:52.730Z,17.20
2018-07-14T07:42:25.020Z,17.20
2018-07-14T07:44:57.781Z,17.30
2018-07-14T07:47:30.064Z,17.30
2018-07-14T07:50:02.449Z,17.30
2018-07-14T07:52:34.957Z,17.30
2018-07-14T07:55:07.384Z,17.20
2018-07-14T07:57:39.459Z,17.10
2018-07-14T08:00:11.764Z,17.10
2018-07-14T08:02:51.396Z,17.10
2018-07-14T08:05:23.841Z,17.20
2018-07-14T08:07:56.553Z,17.10
2018-07-14T08:10:29.051Z,17.10
2018-07-14T08:13:01.570Z,17.10
2018-07-14T08:15:34.078Z,17.10
2018-07-14T08:18:11.939Z,17.10
2018-07-14T08:20:47.005Z,17.00
2018-07-14T08:23:19.376Z,17.10
2018-07-14T08:25:51.496Z,17.10
2018-07-14T08:28:23.768Z,17.20
2018-07-14T08:30:56.172Z,17.10
2018-07-14T08:33:28.251Z,17.00
2018-07-14T08:36:00.602Z,16.90
2018-07-14T08:38:32.960Z,17.00
2018-07-14T08:41:05.193Z,17.00
2018-07-14T08:43:37.547Z,17.00
2018-07-14T08:46:09.907Z,16.90
2018-07-14T08:48:43.108Z,16.80
2018-07-14T08:51:15.469Z,16.80
2018-07-14T08:53:47.907Z,16.80
2018-07-14T08:56:19.924Z,16.80
2018-07-14T08:58:51.989Z,16.80
2018-07-14T09:01:24.213Z,16.90
2018-07-14T09:03:56.395Z,16.80
2018-07-14T09:06:28.505Z,16.80
2018-07-14T09:09:00.524Z,16.90
2018-07-14T09:11:32.766Z,16.80
2018-07-14T09:14:04.936Z,16.80
2018-07-14T09:16:37.189Z,16.80
2018-07-14T09:19:09.602Z,16.80
2018-07-14T09:21:41.779Z,16.80
2018-07-14T09:24:14.120Z,16.70
2018-07-14T09:26:46.283Z,16.60
2018-07-14T09:29:18.431Z,16.60
2018-07-14T09:31:50.670Z,16.60
2018-07-14T09:37:43.710Z,16.60
2018-07-14T09:40:16.180Z,16.60
2018-07-14T09:42:49.301Z,16.50
2018-07-14T09:45:21.655Z,16.40
2018-07-14T09:51:41.529Z,16.30
2018-07-14T09:54:14.116Z,16.30
2018-07-14T09:56:46.504Z,16.30
2018-07-14T09:59:18.762Z,16.30
2018-07-14T10:01:51.015Z,16.30
2018-07-14T10:04:23.417Z,16.30
2018-07-14T10:06:55.660Z,16.30
2018-07-14T10:09:27.897Z,16.20
2018-07-14T10:12:00.127Z,16.20
2018-07-14T10:17:54.431Z,16.10
2018-07-14T10:20:26.886Z,16.10
2018-07-14T10:22:59.711Z,16.00
2018-07-14T10:25:32.261Z,16.00
2018-07-14T10:28:04.985Z,16.00
2018-07-14T10:30:37.478Z,16.10
2018-07-14T10:33:09.824Z,16.10
2018-07-14T10:39:03.273Z,16.10
2018-07-14T10:41:35.470Z,16.10
2018-07-14T10:44:07.725Z,16.00
2018-07-14T10:50:01.474Z,16.10
2018-07-14T10:52:33.663Z,16.00
2018-07-14T10:55:06.021Z,15.90
2018-07-14T10:57:38.343Z,15.90
2018-07-14T11:00:11.271Z,15.90
2018-07-14T11:05:14.769Z,15.90
2018-07-14T11:07:47.068Z,15.80
2018-07-14T11:10:19.352Z,15.80
2018-07-14T11:12:51.665Z,15.80
2018-07-14T11:15:23.919Z,15.70
2018-07-14T11:17:56.211Z,15.80
2018-07-14T11:20:28.554Z,15.70
2018-07-14T11:23:00.949Z,15.70
2018-07-14T11:25:33.171Z,15.80
2018-07-14T11:28:05.419Z,15.80
2018-07-14T11:30:37.648Z,15.80
2018-07-14T11:33:10.002Z,15.80
2018-07-14T11:35:42.278Z,15.80
2018-07-14T11:38:14.563Z,15.80
2018-07-14T11:40:46.881Z,15.80
2018-07-14T11:45:50.147Z,15.80
2018-07-14T11:48:22.484Z,15.80
2018-07-14T11:50:54.806Z,15.80
2018-07-14T11:53:27.110Z,15.80
2018-07-14T11:55:59.480Z,15.80
2018-07-14T11:58:31.905Z,15.80
2018-07-14T12:01:04.304Z,15.90
2018-07-14T12:03:36.934Z,15.90
2018-07-14T12:06:09.225Z,15.90
2018-07-14T12:08:41.453Z,16.00
2018-07-14T12:13:48.300Z,16.00
2018-07-14T12:16:20.738Z,16.00
2018-07-14T12:18:53.081Z,16.10
2018-07-14T12:21:25.354Z,16.10
2018-07-14T12:23:57.619Z,16.10
2018-07-14T12:26:31.404Z,16.10
2018-07-14T12:29:04.546Z,16.20
2018-07-14T12:31:36.783Z,16.30
2018-07-14T12:34:10.633Z,16.60
2018-07-14T12:36:51.817Z,16.60
2018-07-14T12:39:29.099Z,16.90
2018-07-14T12:42:01.829Z,17.00
2018-07-14T12:44:34.518Z,16.90
2018-07-14T12:47:06.839Z,17.10
2018-07-14T12:49:39.271Z,17.50
2018-07-14T12:55:33.148Z,17.40
2018-07-14T12:58:05.689Z,17.10
2018-07-14T13:00:38.136Z,17.00
2018-07-14T13:03:48.204Z,16.90
2018-07-14T13:06:20.450Z,16.90
2018-07-14T13:08:52.813Z,17.10
2018-07-14T13:11:27.834Z,17.30
2018-07-14T13:14:00.349Z,17.90
2018-07-14T13:16:40.877Z,18.40
2018-07-14T13:19:13.337Z,18.90
2018-07-14T13:21:46.215Z,19.20
2018-07-14T13:24:18.534Z,19.10
2018-07-14T13:26:51.276Z,19.50
2018-07-14T13:29:26.036Z,19.50
2018-07-14T13:31:58.340Z,19.90
2018-07-14T13:34:37.059Z,20.10
2018-07-14T13:37:11.231Z,19.90
2018-07-14T13:39:43.766Z,19.90
2018-07-14T13:42:16.031Z,20.20
2018-07-14T13:44:48.310Z,20.50
2018-07-14T13:50:47.929Z,20.60
2018-07-14T13:53:20.400Z,20.60
2018-07-14T13:55:52.777Z,20.60
2018-07-14T13:58:25.241Z,20.70
2018-07-14T14:00:57.811Z,21.00
2018-07-14T14:03:30.144Z,21.10
2018-07-14T14:06:02.569Z,20.80
2018-07-14T14:12:06.395Z,21.00
2018-07-14T14:14:38.798Z,21.20
2018-07-14T14:17:11.198Z,21.20
2018-07-14T14:19:44.240Z,21.00
2018-07-14T14:22:16.477Z,21.00
2018-07-14T14:24:48.686Z,21.20
2018-07-14T14:27:20.912Z,21.00
2018-07-14T14:29:53.254Z,21.50
2018-07-14T14:32:25.454Z,21.60
2018-07-14T14:34:57.769Z,22.40
2018-07-14T14:37:30.067Z,22.00
2018-07-14T14:40:02.334Z,21.90
2018-07-14T14:42:34.704Z,21.80
2018-07-14T14:45:07.790Z,21.90
2018-07-14T14:47:40.283Z,21.80
2018-07-14T14:50:12.963Z,22.20
2018-07-14T14:52:45.460Z,22.30
2018-07-14T14:55:17.734Z,22.10
2018-07-14T14:57:49.935Z,22.00
2018-07-14T15:00:22.203Z,22.10
2018-07-14T15:02:54.391Z,22.20
2018-07-14T15:05:26.757Z,22.30
2018-07-14T15:07:58.947Z,22.50
2018-07-14T15:10:31.571Z,22.60
2018-07-14T15:13:03.866Z,22.50
2018-07-14T15:15:36.178Z,22.50
2018-07-14T15:20:40.411Z,23.50
2018-07-14T15:23:12.833Z,23.20
2018-07-14T15:25:45.564Z,23.40
2018-07-14T15:28:19.080Z,23.20
2018-07-14T15:30:51.396Z,23.60
2018-07-14T15:33:23.781Z,23.70
2018-07-14T15:35:57.048Z,23.40
2018-07-14T15:38:29.217Z,23.40
2018-07-14T15:41:01.513Z,23.20
2018-07-14T15:43:33.843Z,23.80
2018-07-14T15:46:06.040Z,24.10
2018-07-14T15:48:38.438Z,23.20
2018-07-14T15:51:10.631Z,23.20
2018-07-14T15:53:43.124Z,23.70
2018-07-14T15:59:36.670Z,23.80
2018-07-14T16:02:09.248Z,24.50
2018-07-14T16:04:41.792Z,24.10
2018-07-14T16:07:14.472Z,24.50
2018-07-14T16:09:47.183Z,24.70
2018-07-14T16:12:19.672Z,25.20
2018-07-14T16:14:52.276Z,24.00
2018-07-14T16:17:24.876Z,23.80
2018-07-14T16:19:57.817Z,24.20
2018-07-14T16:22:31.064Z,24.00
2018-07-14T16:25:03.640Z,23.80
2018-07-14T16:27:36.300Z,24.80
2018-07-14T16:30:09.193Z,24.80
2018-07-14T16:32:41.655Z,24.40
2018-07-14T16:35:14.635Z,24.70
2018-07-14T16:37:47.806Z,24.70
2018-07-14T16:40:20.433Z,24.00
2018-07-14T16:42:52.881Z,23.90
2018-07-14T16:45:25.388Z,23.30
2018-07-14T16:47:58.263Z,23.40
2018-07-14T16:50:31.181Z,23.90
2018-07-14T16:53:04.353Z,24.00
2018-07-14T16:55:37.092Z,24.10
2018-07-14T16:58:09.827Z,23.60
2018-07-14T17:00:43.284Z,23.70
2018-07-14T17:03:15.881Z,24.00
2018-07-14T17:05:48.497Z,24.40
2018-07-14T17:08:21.045Z,23.70
2018-07-14T17:10:53.719Z,23.20
2018-07-14T17:13:26.297Z,23.80
2018-07-14T17:15:58.721Z,25.00
2018-07-14T17:18:31.390Z,24.90
2018-07-14T17:21:03.989Z,24.80
2018-07-14T17:23:36.724Z,24.80
2018-07-14T17:26:09.464Z,24.50
2018-07-14T17:28:42.091Z,23.90
2018-07-14T17:31:14.562Z,24.50
2018-07-14T17:33:47.181Z,24.40
2018-07-14T17:36:19.846Z,25.20
2018-07-14T17:38:52.540Z,25.30
2018-07-14T17:41:25.189Z,24.70
2018-07-14T17:43:57.860Z,24.50
2018-07-14T17:47:17.470Z,24.30
2018-07-14T17:55:41.383Z,24.60
2018-07-14T17:58:13.802Z,25.30
2018-07-14T18:00:46.179Z,24.80
2018-07-14T18:03:20.336Z,25.10
2018-07-14T18:05:52.679Z,25.40
2018-07-14T18:08:24.996Z,25.20
2018-07-14T18:10:57.338Z,25.30
2018-07-14T18:13:29.715Z,25.40
2018-07-14T18:16:02.211Z,25.10
2018-07-14T18:18:34.561Z,25.70
2018-07-14T18:21:07.157Z,25.70
2018-07-14T18:23:41.683Z,25.00
2018-07-14T18:26:14.148Z,25.00
2018-07-14T18:28:46.479Z,25.70
2018-07-14T18:31:18.877Z,25.10
2018-07-14T18:33:51.429Z,25.30
2018-07-14T18:36:23.723Z,25.20
2018-07-14T18:38:56.117Z,25.00
2018-07-14T18:44:49.790Z,25.10
2018-07-14T18:47:22.066Z,23.80
2018-07-14T18:49:54.196Z,24.10
2018-07-14T18:55:51.207Z,25.00
2018-07-14T18:58:23.314Z,25.10
2018-07-14T19:00:55.679Z,25.40
2018-07-14T19:03:27.778Z,25.00
2018-07-14T19:06:40.287Z,24.70
2018-07-14T19:12:34.215Z,24.80
2018-07-14T19:15:06.925Z,24.70
2018-07-14T19:17:39.452Z,25.60
2018-07-14T19:20:12.027Z,26.30
2018-07-14T19:22:44.657Z,26.50
2018-07-14T19:25:17.243Z,26.20
2018-07-14T19:27:50.053Z,25.70
2018-07-14T19:30:22.641Z,25.50
2018-07-14T19:32:55.377Z,25.60
2018-07-14T19:35:28.167Z,25.80
2018-07-14T19:38:01.248Z,25.20
2018-07-14T19:40:33.944Z,24.30
2018-07-14T19:43:07.431Z,24.30
2018-07-14T19:45:43.800Z,24.60
2018-07-14T19:48:19.037Z,24.40
2018-07-14T19:50:51.701Z,24.80
2018-07-14T19:53:24.704Z,24.90
2018-07-14T19:55:58.679Z,24.20
2018-07-14T19:58:32.245Z,24.60
2018-07-14T20:01:05.000Z,25.60
2018-07-14T20:03:38.471Z,25.90
2018-07-14T20:06:11.114Z,25.90
2018-07-14T20:08:43.816Z,25.70
2018-07-14T20:11:16.427Z,26.00
2018-07-14T20:13:49.077Z,25.70
2018-07-14T20:16:22.577Z,25.30
2018-07-14T20:18:55.161Z,24.90
2018-07-14T20:21:28.584Z,25.00
2018-07-14T20:24:01.217Z,25.40
2018-07-14T20:26:33.851Z,26.00
2018-07-14T20:29:07.111Z,25.70
2018-07-14T20:31:39.719Z,24.60
2018-07-14T20:34:12.458Z,24.40
2018-07-14T20:36:45.341Z,24.90
2018-07-14T20:39:18.108Z,25.30
2018-07-14T20:41:50.741Z,25.50
2018-07-14T20:44:23.348Z,25.20
2018-07-14T20:46:56.061Z,25.30
2018-07-14T20:49:28.787Z,25.60
2018-07-14T20:52:01.387Z,25.30
2018-07-14T20:54:34.077Z,25.30
2018-07-14T20:57:06.741Z,25.30
2018-07-14T20:59:39.492Z,25.40
2018-07-14T21:02:12.035Z,25.20
2018-07-14T21:04:44.703Z,24.80
2018-07-14T21:07:17.323Z,25.10
2018-07-14T21:09:50.636Z,25.40
2018-07-14T21:12:23.267Z,25.40
2018-07-14T21:14:56.817Z,25.50
2018-07-14T21:17:29.451Z,25.30
2018-07-14T21:20:02.203Z,25.20
2018-07-14T21:22:34.780Z,25.00
2018-07-14T21:25:07.380Z,25.40
2018-07-14T21:27:40.168Z,25.70
2018-07-14T21:30:13.005Z,25.30
2018-07-14T21:32:45.716Z,25.60
2018-07-14T21:35:18.266Z,25.70
2018-07-14T21:37:50.898Z,26.10
2018-07-14T21:40:23.575Z,26.50
2018-07-14T21:42:56.180Z,26.10
2018-07-14T21:45:28.849Z,26.40
2018-07-14T21:48:01.458Z,26.10
2018-07-14T21:50:34.072Z,25.90
2018-07-14T21:53:10.829Z,25.10
2018-07-14T21:55:47.531Z,25.20
2018-07-14T21:58:23.385Z,25.70
2018-07-14T22:01:08.711Z,25.20
2018-07-14T22:03:50.888Z,25.20
2018-07-14T22:06:24.751Z,25.20
2018-07-14T22:09:00.813Z,24.90
2018-07-14T22:11:36.615Z,25.10
2018-07-14T22:14:11.479Z,25.10
2018-07-14T22:16:50.788Z,25.10
2018-07-14T22:19:25.819Z,25.20
2018-07-14T22:22:02.731Z,25.00
2018-07-14T22:24:37.597Z,24.50
2018-07-14T22:27:13.314Z,24.20
2018-07-14T22:29:48.927Z,24.20
2018-07-14T22:32:23.009Z,24.50
2018-07-14T22:34:55.549Z,24.50
2018-07-14T22:37:28.119Z,24.50
2018-07-14T22:43:11.089Z,24.30
2018-07-14T22:45:48.978Z,24.90
2018-07-14T22:48:21.763Z,24.40
2018-07-14T22:50:54.145Z,23.90
2018-07-14T22:53:26.566Z,23.60
2018-07-14T22:58:30.025Z,23.40
2018-07-14T23:01:02.453Z,23.20
2018-07-14T23:03:34.827Z,23.20
2018-07-14T23:06:07.502Z,23.00
2018-07-14T23:08:39.840Z,22.80
2018-07-14T23:11:12.304Z,22.60
2018-07-14T23:13:44.899Z,22.60
2018-07-14T23:16:18.979Z,22.60
2018-07-14T23:18:51.475Z,22.50
2018-07-14T23:21:23.796Z,22.50
2018-07-14T23:23:56.250Z,22.60
2018-07-14T23:26:28.611Z,22.50
2018-07-14T23:29:01.035Z,22.40
2018-07-14T23:31:33.372Z,22.40
2018-07-14T23:34:05.703Z,22.50
2018-07-14T23:36:39.072Z,22.20
2018-07-14T23:39:11.817Z,22.20
2018-07-14T23:41:44.264Z,22.20
2018-07-14T23:44:16.563Z,22.00
2018-07-14T23:46:48.930Z,21.90
2018-07-14T23:49:21.278Z,21.90
2018-07-14T23:51:53.869Z,21.90
2018-07-14T23:54:26.248Z,21.70
2018-07-14T23:56:58.649Z,21.50
2018-07-14T23:59:30.997Z,21.50
